sensor_id;sensor_type;location;lat;lon;timestamp;P1;durP1;ratioP1;P2;durP2;ratioP2
56427;SDS011;42331;53.578;9.760;2023-04-03T00:00:13;6.77;;;1.73;;
56427;SDS011;42331;53.578;9.760;2023-04-03T00:02:44;5.78;;;1.83;;
56427;SDS011;42331;53.578;9.760;2023-04-03T00:05:15;7.90;;;1.57;;
56427;SDS011;42331;53.578;9.760;2023-04-03T00:07:45;7.57;;;1.90;;
56427;SDS011;42331;53.578;9.760;2023-04-03T00:10:16;8.93;;;1.90;;
56427;SDS011;42331;53.578;9.760;2023-04-03T00:12:47;6.13;;;1.50;;
56427;SDS011;42331;53.578;9.760;2023-04-03T00:15:18;5.35;;;1.60;;
56427;SDS011;42331;53.578;9.760;2023-04-03T00:17:48;6.20;;;1.33;;
56427;SDS011;42331;53.578;9.760;2023-04-03T00:20:19;6.47;;;1.37;;
56427;SDS011;42331;53.578;9.760;2023-04-03T00:22:50;8.70;;;1.73;;
56427;SDS011;42331;53.578;9.760;2023-04-03T00:25:21;10.47;;;1.90;;
56427;SDS011;42331;53.578;9.760;2023-04-03T00:27:52;5.33;;;1.60;;
56427;SDS011;42331;53.578;9.760;2023-04-03T00:30:23;3.77;;;1.50;;
56427;SDS011;42331;53.578;9.760;2023-04-03T00:32:54;6.63;;;1.90;;
56427;SDS011;42331;53.578;9.760;2023-04-03T00:35:25;9.50;;;2.15;;
56427;SDS011;42331;53.578;9.760;2023-04-03T00:37:55;8.67;;;2.17;;
56427;SDS011;42331;53.578;9.760;2023-04-03T00:40:27;10.35;;;2.63;;
56427;SDS011;42331;53.578;9.760;2023-04-03T00:43:05;7.90;;;1.75;;
56427;SDS011;42331;53.578;9.760;2023-04-03T00:45:50;6.97;;;1.90;;
56427;SDS011;42331;53.578;9.760;2023-04-03T00:51:21;9.27;;;2.17;;
56427;SDS011;42331;53.578;9.760;2023-04-03T00:53:55;8.98;;;1.90;;
56427;SDS011;42331;53.578;9.760;2023-04-03T00:56:29;5.80;;;1.77;;
56427;SDS011;42331;53.578;9.760;2023-04-03T01:01:34;7.80;;;1.83;;
56427;SDS011;42331;53.578;9.760;2023-04-03T01:04:05;8.13;;;1.88;;
56427;SDS011;42331;53.578;9.760;2023-04-03T01:09:36;5.18;;;1.70;;
56427;SDS011;42331;53.578;9.760;2023-04-03T01:14:57;10.63;;;2.20;;
56427;SDS011;42331;53.578;9.760;2023-04-03T01:17:34;11.43;;;2.45;;
56427;SDS011;42331;53.578;9.760;2023-04-03T01:25:41;5.35;;;1.70;;
56427;SDS011;42331;53.578;9.760;2023-04-03T01:28:34;7.55;;;1.88;;
56427;SDS011;42331;53.578;9.760;2023-04-03T01:33:50;10.07;;;2.40;;
56427;SDS011;42331;53.578;9.760;2023-04-03T01:36:26;9.97;;;1.90;;
56427;SDS011;42331;53.578;9.760;2023-04-03T01:38:59;6.32;;;2.40;;
56427;SDS011;42331;53.578;9.760;2023-04-03T01:41:30;4.93;;;2.00;;
56427;SDS011;42331;53.578;9.760;2023-04-03T01:44:02;11.93;;;2.63;;
56427;SDS011;42331;53.578;9.760;2023-04-03T01:46:34;7.90;;;2.08;;
56427;SDS011;42331;53.578;9.760;2023-04-03T01:49:04;6.27;;;2.33;;
56427;SDS011;42331;53.578;9.760;2023-04-03T01:51:35;12.40;;;2.60;;
56427;SDS011;42331;53.578;9.760;2023-04-03T01:54:06;9.77;;;2.37;;
56427;SDS011;42331;53.578;9.760;2023-04-03T01:56:37;8.13;;;2.43;;
56427;SDS011;42331;53.578;9.760;2023-04-03T01:59:09;8.40;;;2.15;;
56427;SDS011;42331;53.578;9.760;2023-04-03T02:01:40;13.33;;;2.70;;
56427;SDS011;42331;53.578;9.760;2023-04-03T02:04:11;9.53;;;2.30;;
56427;SDS011;42331;53.578;9.760;2023-04-03T02:06:42;7.47;;;2.33;;
56427;SDS011;42331;53.578;9.760;2023-04-03T02:09:13;9.13;;;2.40;;
56427;SDS011;42331;53.578;9.760;2023-04-03T02:11:43;8.70;;;2.70;;
56427;SDS011;42331;53.578;9.760;2023-04-03T02:14:14;9.00;;;2.03;;
56427;SDS011;42331;53.578;9.760;2023-04-03T02:16:45;10.60;;;2.67;;
56427;SDS011;42331;53.578;9.760;2023-04-03T02:19:16;6.40;;;2.23;;
56427;SDS011;42331;53.578;9.760;2023-04-03T02:21:52;10.05;;;2.40;;
56427;SDS011;42331;53.578;9.760;2023-04-03T02:24:22;10.47;;;2.87;;
56427;SDS011;42331;53.578;9.760;2023-04-03T02:26:53;8.60;;;2.37;;
56427;SDS011;42331;53.578;9.760;2023-04-03T02:29:24;8.53;;;2.50;;
56427;SDS011;42331;53.578;9.760;2023-04-03T02:31:55;9.73;;;2.80;;
56427;SDS011;42331;53.578;9.760;2023-04-03T02:34:25;10.93;;;3.00;;
56427;SDS011;42331;53.578;9.760;2023-04-03T02:36:56;7.57;;;2.50;;
56427;SDS011;42331;53.578;9.760;2023-04-03T02:39:27;10.40;;;2.70;;
56427;SDS011;42331;53.578;9.760;2023-04-03T02:41:58;10.83;;;2.37;;
56427;SDS011;42331;53.578;9.760;2023-04-03T02:44:28;8.47;;;2.63;;
56427;SDS011;42331;53.578;9.760;2023-04-03T02:46:59;11.23;;;2.73;;
56427;SDS011;42331;53.578;9.760;2023-04-03T02:49:30;8.13;;;2.30;;
56427;SDS011;42331;53.578;9.760;2023-04-03T02:52:01;9.27;;;2.30;;
56427;SDS011;42331;53.578;9.760;2023-04-03T02:54:32;8.63;;;2.43;;
56427;SDS011;42331;53.578;9.760;2023-04-03T02:57:03;12.10;;;2.70;;
56427;SDS011;42331;53.578;9.760;2023-04-03T02:59:34;8.67;;;2.40;;
56427;SDS011;42331;53.578;9.760;2023-04-03T03:02:09;9.82;;;2.17;;
56427;SDS011;42331;53.578;9.760;2023-04-03T03:04:40;9.57;;;2.22;;
56427;SDS011;42331;53.578;9.760;2023-04-03T03:07:10;12.27;;;2.97;;
56427;SDS011;42331;53.578;9.760;2023-04-03T03:09:41;7.57;;;2.23;;
56427;SDS011;42331;53.578;9.760;2023-04-03T03:12:12;10.93;;;2.13;;
56427;SDS011;42331;53.578;9.760;2023-04-03T03:14:43;6.10;;;2.30;;
56427;SDS011;42331;53.578;9.760;2023-04-03T03:17:13;8.93;;;2.13;;
56427;SDS011;42331;53.578;9.760;2023-04-03T03:19:44;6.50;;;1.87;;
56427;SDS011;42331;53.578;9.760;2023-04-03T03:22:16;11.98;;;2.35;;
56427;SDS011;42331;53.578;9.760;2023-04-03T03:24:47;9.33;;;1.70;;
56427;SDS011;42331;53.578;9.760;2023-04-03T03:27:17;6.43;;;2.20;;
56427;SDS011;42331;53.578;9.760;2023-04-03T03:29:48;9.23;;;2.23;;
56427;SDS011;42331;53.578;9.760;2023-04-03T03:32:19;6.07;;;2.57;;
56427;SDS011;42331;53.578;9.760;2023-04-03T03:34:50;8.00;;;2.23;;
56427;SDS011;42331;53.578;9.760;2023-04-03T03:37:21;9.50;;;2.47;;
56427;SDS011;42331;53.578;9.760;2023-04-03T03:39:51;11.17;;;2.53;;
56427;SDS011;42331;53.578;9.760;2023-04-03T03:42:22;9.23;;;2.77;;
56427;SDS011;42331;53.578;9.760;2023-04-03T03:44:53;7.97;;;2.40;;
56427;SDS011;42331;53.578;9.760;2023-04-03T03:47:23;8.67;;;2.50;;
56427;SDS011;42331;53.578;9.760;2023-04-03T03:49:55;11.35;;;2.88;;
56427;SDS011;42331;53.578;9.760;2023-04-03T03:52:26;9.70;;;2.50;;
56427;SDS011;42331;53.578;9.760;2023-04-03T03:54:57;9.73;;;2.97;;
56427;SDS011;42331;53.578;9.760;2023-04-03T03:57:27;10.53;;;2.40;;
56427;SDS011;42331;53.578;9.760;2023-04-03T03:59:58;6.50;;;2.53;;
56427;SDS011;42331;53.578;9.760;2023-04-03T04:02:29;8.23;;;2.33;;
56427;SDS011;42331;53.578;9.760;2023-04-03T04:05:00;7.27;;;2.40;;
56427;SDS011;42331;53.578;9.760;2023-04-03T04:07:31;6.13;;;2.47;;
56427;SDS011;42331;53.578;9.760;2023-04-03T04:10:02;11.53;;;2.70;;
56427;SDS011;42331;53.578;9.760;2023-04-03T04:12:33;13.27;;;3.10;;
56427;SDS011;42331;53.578;9.760;2023-04-03T04:15:05;8.65;;;2.40;;
56427;SDS011;42331;53.578;9.760;2023-04-03T04:17:36;6.82;;;2.10;;
56427;SDS011;42331;53.578;9.760;2023-04-03T04:20:07;8.93;;;2.87;;
56427;SDS011;42331;53.578;9.760;2023-04-03T04:22:38;6.15;;;1.98;;
56427;SDS011;42331;53.578;9.760;2023-04-03T04:25:09;9.30;;;3.67;;
56427;SDS011;42331;53.578;9.760;2023-04-03T04:27:40;6.03;;;1.97;;
56427;SDS011;42331;53.578;9.760;2023-04-03T04:30:11;7.07;;;2.10;;
56427;SDS011;42331;53.578;9.760;2023-04-03T04:32:43;9.50;;;3.10;;
56427;SDS011;42331;53.578;9.760;2023-04-03T04:35:14;9.83;;;2.37;;
56427;SDS011;42331;53.578;9.760;2023-04-03T04:37:44;9.13;;;3.23;;
56427;SDS011;42331;53.578;9.760;2023-04-03T04:40:15;9.33;;;2.93;;
56427;SDS011;42331;53.578;9.760;2023-04-03T04:42:46;10.73;;;3.37;;
56427;SDS011;42331;53.578;9.760;2023-04-03T04:45:17;7.73;;;3.17;;
56427;SDS011;42331;53.578;9.760;2023-04-03T04:47:47;10.80;;;3.70;;
56427;SDS011;42331;53.578;9.760;2023-04-03T04:50:21;7.70;;;3.08;;
56427;SDS011;42331;53.578;9.760;2023-04-03T04:52:52;9.67;;;3.00;;
56427;SDS011;42331;53.578;9.760;2023-04-03T04:55:23;6.30;;;2.43;;
56427;SDS011;42331;53.578;9.760;2023-04-03T04:57:53;10.53;;;3.43;;
56427;SDS011;42331;53.578;9.760;2023-04-03T05:00:24;8.30;;;2.40;;
56427;SDS011;42331;53.578;9.760;2023-04-03T05:02:55;8.77;;;2.35;;
56427;SDS011;42331;53.578;9.760;2023-04-03T05:05:26;10.33;;;3.13;;
56427;SDS011;42331;53.578;9.760;2023-04-03T05:07:57;8.82;;;2.83;;
56427;SDS011;42331;53.578;9.760;2023-04-03T05:10:28;6.90;;;3.17;;
56427;SDS011;42331;53.578;9.760;2023-04-03T05:12:59;9.50;;;3.53;;
56427;SDS011;42331;53.578;9.760;2023-04-03T05:15:30;11.97;;;4.10;;
56427;SDS011;42331;53.578;9.760;2023-04-03T05:18:00;14.27;;;3.77;;
56427;SDS011;42331;53.578;9.760;2023-04-03T05:20:31;10.70;;;3.97;;
56427;SDS011;42331;53.578;9.760;2023-04-03T05:23:03;12.00;;;3.03;;
56427;SDS011;42331;53.578;9.760;2023-04-03T05:25:34;8.80;;;2.33;;
56427;SDS011;42331;53.578;9.760;2023-04-03T05:28:04;9.33;;;3.20;;
56427;SDS011;42331;53.578;9.760;2023-04-03T05:30:35;8.20;;;3.00;;
56427;SDS011;42331;53.578;9.760;2023-04-03T05:33:06;7.03;;;3.20;;
56427;SDS011;42331;53.578;9.760;2023-04-03T05:35:37;17.17;;;3.40;;
56427;SDS011;42331;53.578;9.760;2023-04-03T05:38:11;8.95;;;3.15;;
56427;SDS011;42331;53.578;9.760;2023-04-03T05:40:42;10.60;;;3.67;;
56427;SDS011;42331;53.578;9.760;2023-04-03T05:43:12;8.53;;;2.77;;
56427;SDS011;42331;53.578;9.760;2023-04-03T05:45:43;8.57;;;3.87;;
56427;SDS011;42331;53.578;9.760;2023-04-03T05:48:14;15.90;;;4.07;;
56427;SDS011;42331;53.578;9.760;2023-04-03T05:50:45;9.43;;;3.43;;
56427;SDS011;42331;53.578;9.760;2023-04-03T05:53:21;12.63;;;3.70;;
56427;SDS011;42331;53.578;9.760;2023-04-03T05:55:58;11.40;;;3.20;;
56427;SDS011;42331;53.578;9.760;2023-04-03T05:58:29;8.00;;;3.17;;
56427;SDS011;42331;53.578;9.760;2023-04-03T06:01:00;10.52;;;3.30;;
56427;SDS011;42331;53.578;9.760;2023-04-03T06:03:31;9.02;;;3.40;;
56427;SDS011;42331;53.578;9.760;2023-04-03T06:06:03;8.50;;;3.33;;
56427;SDS011;42331;53.578;9.760;2023-04-03T06:08:34;8.77;;;2.92;;
56427;SDS011;42331;53.578;9.760;2023-04-03T06:11:05;6.10;;;2.63;;
56427;SDS011;42331;53.578;9.760;2023-04-03T06:13:35;10.37;;;3.23;;
56427;SDS011;42331;53.578;9.760;2023-04-03T06:16:08;9.93;;;3.13;;
56427;SDS011;42331;53.578;9.760;2023-04-03T06:18:44;8.52;;;3.00;;
56427;SDS011;42331;53.578;9.760;2023-04-03T06:21:15;10.57;;;2.90;;
56427;SDS011;42331;53.578;9.760;2023-04-03T06:23:45;7.33;;;1.90;;
56427;SDS011;42331;53.578;9.760;2023-04-03T06:26:16;8.87;;;2.30;;
56427;SDS011;42331;53.578;9.760;2023-04-03T06:28:47;10.30;;;2.60;;
56427;SDS011;42331;53.578;9.760;2023-04-03T06:31:18;11.93;;;3.45;;
56427;SDS011;42331;53.578;9.760;2023-04-03T06:33:48;11.87;;;2.73;;
56427;SDS011;42331;53.578;9.760;2023-04-03T06:36:19;4.03;;;1.80;;
56427;SDS011;42331;53.578;9.760;2023-04-03T06:38:51;9.38;;;2.25;;
56427;SDS011;42331;53.578;9.760;2023-04-03T06:41:21;9.43;;;2.05;;
56427;SDS011;42331;53.578;9.760;2023-04-03T06:43:52;5.13;;;2.35;;
56427;SDS011;42331;53.578;9.760;2023-04-03T06:46:23;5.93;;;1.98;;
56427;SDS011;42331;53.578;9.760;2023-04-03T06:48:56;8.85;;;2.65;;
56427;SDS011;42331;53.578;9.760;2023-04-03T06:51:27;9.55;;;2.58;;
56427;SDS011;42331;53.578;9.760;2023-04-03T06:53:59;10.45;;;2.15;;
56427;SDS011;42331;53.578;9.760;2023-04-03T06:56:30;10.23;;;2.80;;
56427;SDS011;42331;53.578;9.760;2023-04-03T06:59:01;5.97;;;1.73;;
56427;SDS011;42331;53.578;9.760;2023-04-03T07:01:33;11.40;;;2.72;;
56427;SDS011;42331;53.578;9.760;2023-04-03T07:04:03;12.40;;;2.25;;
56427;SDS011;42331;53.578;9.760;2023-04-03T07:06:34;9.70;;;2.80;;
56427;SDS011;42331;53.578;9.760;2023-04-03T07:09:05;8.77;;;2.70;;
56427;SDS011;42331;53.578;9.760;2023-04-03T07:11:36;7.40;;;2.25;;
56427;SDS011;42331;53.578;9.760;2023-04-03T07:14:06;6.37;;;2.00;;
56427;SDS011;42331;53.578;9.760;2023-04-03T07:16:37;12.23;;;1.98;;
56427;SDS011;42331;53.578;9.760;2023-04-03T07:19:08;6.97;;;1.97;;
56427;SDS011;42331;53.578;9.760;2023-04-03T07:21:39;4.68;;;1.75;;
56427;SDS011;42331;53.578;9.760;2023-04-03T07:24:11;7.85;;;2.20;;
56427;SDS011;42331;53.578;9.760;2023-04-03T07:26:42;4.30;;;1.75;;
56427;SDS011;42331;53.578;9.760;2023-04-03T07:29:15;6.35;;;2.00;;
56427;SDS011;42331;53.578;9.760;2023-04-03T07:31:45;5.97;;;1.95;;
56427;SDS011;42331;53.578;9.760;2023-04-03T07:34:17;6.43;;;2.22;;
56427;SDS011;42331;53.578;9.760;2023-04-03T07:36:47;5.53;;;1.70;;
56427;SDS011;42331;53.578;9.760;2023-04-03T07:39:18;7.53;;;2.22;;
56427;SDS011;42331;53.578;9.760;2023-04-03T07:41:49;9.15;;;2.47;;
56427;SDS011;42331;53.578;9.760;2023-04-03T07:44:19;6.82;;;2.05;;
56427;SDS011;42331;53.578;9.760;2023-04-03T07:46:50;6.78;;;1.80;;
56427;SDS011;42331;53.578;9.760;2023-04-03T07:49:21;5.38;;;1.17;;
56427;SDS011;42331;53.578;9.760;2023-04-03T07:51:54;6.90;;;1.83;;
56427;SDS011;42331;53.578;9.760;2023-04-03T07:54:24;4.25;;;1.25;;
56427;SDS011;42331;53.578;9.760;2023-04-03T07:56:55;6.68;;;2.00;;
56427;SDS011;42331;53.578;9.760;2023-04-03T07:59:27;3.65;;;1.23;;
56427;SDS011;42331;53.578;9.760;2023-04-03T08:01:58;8.93;;;1.70;;
56427;SDS011;42331;53.578;9.760;2023-04-03T08:04:28;7.28;;;1.60;;
56427;SDS011;42331;53.578;9.760;2023-04-03T08:07:00;6.18;;;1.40;;
56427;SDS011;42331;53.578;9.760;2023-04-03T08:09:31;8.00;;;1.52;;
56427;SDS011;42331;53.578;9.760;2023-04-03T08:12:02;8.35;;;1.75;;
56427;SDS011;42331;53.578;9.760;2023-04-03T08:14:33;4.07;;;1.10;;
56427;SDS011;42331;53.578;9.760;2023-04-03T08:17:07;4.05;;;1.10;;
56427;SDS011;42331;53.578;9.760;2023-04-03T08:19:41;5.13;;;1.45;;
56427;SDS011;42331;53.578;9.760;2023-04-03T08:22:12;5.05;;;1.27;;
56427;SDS011;42331;53.578;9.760;2023-04-03T08:24:43;9.85;;;1.45;;
56427;SDS011;42331;53.578;9.760;2023-04-03T08:27:13;6.65;;;1.27;;
56427;SDS011;42331;53.578;9.760;2023-04-03T08:29:44;7.22;;;1.10;;
56427;SDS011;42331;53.578;9.760;2023-04-03T08:32:15;4.73;;;0.80;;
56427;SDS011;42331;53.578;9.760;2023-04-03T08:34:46;4.35;;;1.05;;
56427;SDS011;42331;53.578;9.760;2023-04-03T08:37:17;2.40;;;0.70;;
56427;SDS011;42331;53.578;9.760;2023-04-03T08:39:47;5.53;;;0.90;;
56427;SDS011;42331;53.578;9.760;2023-04-03T08:45:05;4.70;;;0.90;;
56427;SDS011;42331;53.578;9.760;2023-04-03T08:47:57;6.05;;;0.80;;
56427;SDS011;42331;53.578;9.760;2023-04-03T08:50:41;5.13;;;1.02;;
56427;SDS011;42331;53.578;9.760;2023-04-03T08:53:16;6.10;;;0.95;;
56427;SDS011;42331;53.578;9.760;2023-04-03T08:55:55;4.35;;;0.60;;
56427;SDS011;42331;53.578;9.760;2023-04-03T08:58:30;3.42;;;0.88;;
56427;SDS011;42331;53.578;9.760;2023-04-03T09:01:16;3.15;;;0.70;;
56427;SDS011;42331;53.578;9.760;2023-04-03T09:03:47;5.78;;;0.98;;
56427;SDS011;42331;53.578;9.760;2023-04-03T09:06:20;5.88;;;0.73;;
56427;SDS011;42331;53.578;9.760;2023-04-03T09:15:23;3.45;;;0.93;;
56427;SDS011;42331;53.578;9.760;2023-04-03T09:18:00;3.65;;;0.70;;
56427;SDS011;42331;53.578;9.760;2023-04-03T09:23:18;5.18;;;0.85;;
56427;SDS011;42331;53.578;9.760;2023-04-03T09:26:03;5.45;;;0.93;;
56427;SDS011;42331;53.578;9.760;2023-04-03T09:28:39;5.90;;;0.90;;
56427;SDS011;42331;53.578;9.760;2023-04-03T09:31:35;3.83;;;0.75;;
56427;SDS011;42331;53.578;9.760;2023-04-03T09:34:17;3.63;;;0.75;;
56427;SDS011;42331;53.578;9.760;2023-04-03T09:36:53;3.53;;;0.90;;
56427;SDS011;42331;53.578;9.760;2023-04-03T09:39:27;3.45;;;0.55;;
56427;SDS011;42331;53.578;9.760;2023-04-03T09:42:03;4.35;;;0.93;;
56427;SDS011;42331;53.578;9.760;2023-04-03T09:44:54;3.97;;;0.80;;
56427;SDS011;42331;53.578;9.760;2023-04-03T09:47:31;2.15;;;0.70;;
56427;SDS011;42331;53.578;9.760;2023-04-03T09:52:45;2.50;;;0.70;;
56427;SDS011;42331;53.578;9.760;2023-04-03T09:55:18;3.80;;;0.70;;
56427;SDS011;42331;53.578;9.760;2023-04-03T09:57:57;2.65;;;0.70;;
56427;SDS011;42331;53.578;9.760;2023-04-03T10:00:34;3.33;;;0.60;;
56427;SDS011;42331;53.578;9.760;2023-04-03T10:06:02;2.40;;;0.73;;
56427;SDS011;42331;53.578;9.760;2023-04-03T10:08:34;3.42;;;0.85;;
56427;SDS011;42331;53.578;9.760;2023-04-03T10:11:06;2.63;;;0.93;;
56427;SDS011;42331;53.578;9.760;2023-04-03T10:13:50;4.90;;;0.60;;
56427;SDS011;42331;53.578;9.760;2023-04-03T10:16:34;2.90;;;0.70;;
56427;SDS011;42331;53.578;9.760;2023-04-03T10:22:04;5.10;;;0.80;;
56427;SDS011;42331;53.578;9.760;2023-04-03T10:27:37;4.85;;;1.15;;
56427;SDS011;42331;53.578;9.760;2023-04-03T10:33:26;4.05;;;0.70;;
56427;SDS011;42331;53.578;9.760;2023-04-03T10:38:46;4.95;;;0.90;;
56427;SDS011;42331;53.578;9.760;2023-04-03T10:41:34;2.88;;;0.90;;
56427;SDS011;42331;53.578;9.760;2023-04-03T10:47:18;3.00;;;0.50;;
56427;SDS011;42331;53.578;9.760;2023-04-03T10:52:42;2.65;;;0.75;;
56427;SDS011;42331;53.578;9.760;2023-04-03T10:57:54;4.63;;;0.88;;
56427;SDS011;42331;53.578;9.760;2023-04-03T11:00:45;3.72;;;0.70;;
56427;SDS011;42331;53.578;9.760;2023-04-03T11:05:59;3.58;;;0.70;;
56427;SDS011;42331;53.578;9.760;2023-04-03T11:11:29;6.20;;;3.13;;
56427;SDS011;42331;53.578;9.760;2023-04-03T11:16:55;4.47;;;1.05;;
56427;SDS011;42331;53.578;9.760;2023-04-03T11:19:47;4.88;;;1.33;;
56427;SDS011;42331;53.578;9.760;2023-04-03T11:22:40;2.85;;;0.73;;
56427;SDS011;42331;53.578;9.760;2023-04-03T11:27:59;2.67;;;0.63;;
56427;SDS011;42331;53.578;9.760;2023-04-03T11:30:42;4.15;;;1.38;;
56427;SDS011;42331;53.578;9.760;2023-04-03T11:33:27;2.92;;;0.77;;
56427;SDS011;42331;53.578;9.760;2023-04-03T11:36:21;2.65;;;0.70;;
56427;SDS011;42331;53.578;9.760;2023-04-03T11:38:59;2.35;;;0.75;;
56427;SDS011;42331;53.578;9.760;2023-04-03T11:41:36;5.20;;;0.80;;
56427;SDS011;42331;53.578;9.760;2023-04-03T11:47:04;2.17;;;0.60;;
56427;SDS011;42331;53.578;9.760;2023-04-03T11:49:51;3.50;;;0.68;;
56427;SDS011;42331;53.578;9.760;2023-04-03T12:16:28;5.45;;;1.23;;
56427;SDS011;42331;53.578;9.760;2023-04-03T12:19:01;2.80;;;0.60;;
56427;SDS011;42331;53.578;9.760;2023-04-03T12:32:12;2.08;;;0.65;;
56427;SDS011;42331;53.578;9.760;2023-04-03T12:38:30;3.83;;;0.95;;
56427;SDS011;42331;53.578;9.760;2023-04-03T12:47:19;5.55;;;0.63;;
56427;SDS011;42331;53.578;9.760;2023-04-03T12:49:52;3.10;;;0.70;;
56427;SDS011;42331;53.578;9.760;2023-04-03T12:55:03;3.53;;;0.70;;
56427;SDS011;42331;53.578;9.760;2023-04-03T12:57:37;2.88;;;0.60;;
56427;SDS011;42331;53.578;9.760;2023-04-03T13:03:02;3.00;;;0.50;;
56427;SDS011;42331;53.578;9.760;2023-04-03T13:05:34;2.40;;;0.73;;
56427;SDS011;42331;53.578;9.760;2023-04-03T13:08:09;2.67;;;0.80;;
56427;SDS011;42331;53.578;9.760;2023-04-03T13:10:48;1.65;;;0.50;;
56427;SDS011;42331;53.578;9.760;2023-04-03T13:13:29;4.32;;;0.80;;
56427;SDS011;42331;53.578;9.760;2023-04-03T13:16:07;3.80;;;0.65;;
56427;SDS011;42331;53.578;9.760;2023-04-03T13:18:40;3.13;;;0.80;;
56427;SDS011;42331;53.578;9.760;2023-04-03T13:21:13;4.90;;;0.63;;
56427;SDS011;42331;53.578;9.760;2023-04-03T13:23:48;5.85;;;0.90;;
56427;SDS011;42331;53.578;9.760;2023-04-03T13:26:21;4.70;;;1.00;;
56427;SDS011;42331;53.578;9.760;2023-04-03T13:29:01;4.13;;;0.80;;
56427;SDS011;42331;53.578;9.760;2023-04-03T13:31:35;3.33;;;0.60;;
56427;SDS011;42331;53.578;9.760;2023-04-03T13:36:44;3.03;;;0.80;;
56427;SDS011;42331;53.578;9.760;2023-04-03T13:39:25;4.82;;;0.63;;
56427;SDS011;42331;53.578;9.760;2023-04-03T13:42:14;3.65;;;0.73;;
56427;SDS011;42331;53.578;9.760;2023-04-03T13:47:51;4.57;;;0.73;;
56427;SDS011;42331;53.578;9.760;2023-04-03T13:50:25;3.47;;;0.70;;
56427;SDS011;42331;53.578;9.760;2023-04-03T13:53:03;2.13;;;0.60;;
56427;SDS011;42331;53.578;9.760;2023-04-03T13:55:57;2.83;;;0.65;;
56427;SDS011;42331;53.578;9.760;2023-04-03T13:58:51;5.53;;;0.70;;
56427;SDS011;42331;53.578;9.760;2023-04-03T14:02:29;3.92;;;1.00;;
56427;SDS011;42331;53.578;9.760;2023-04-03T14:07:10;2.50;;;0.57;;
56427;SDS011;42331;53.578;9.760;2023-04-03T14:09:42;3.05;;;0.82;;
56427;SDS011;42331;53.578;9.760;2023-04-03T14:15:19;3.22;;;0.80;;
56427;SDS011;42331;53.578;9.760;2023-04-03T14:17:54;4.63;;;0.60;;
56427;SDS011;42331;53.578;9.760;2023-04-03T14:20:26;6.20;;;0.77;;
56427;SDS011;42331;53.578;9.760;2023-04-03T14:22:57;2.70;;;0.60;;
56427;SDS011;42331;53.578;9.760;2023-04-03T14:25:28;2.90;;;1.02;;
56427;SDS011;42331;53.578;9.760;2023-04-03T14:27:59;13.38;;;6.35;;
56427;SDS011;42331;53.578;9.760;2023-04-03T14:30:32;10.43;;;5.55;;
56427;SDS011;42331;53.578;9.760;2023-04-03T14:33:03;4.22;;;1.00;;
56427;SDS011;42331;53.578;9.760;2023-04-03T14:35:34;2.92;;;0.82;;
56427;SDS011;42331;53.578;9.760;2023-04-03T14:38:09;4.22;;;0.95;;
56427;SDS011;42331;53.578;9.760;2023-04-03T14:41:02;4.20;;;0.80;;
56427;SDS011;42331;53.578;9.760;2023-04-03T14:43:33;3.22;;;1.08;;
56427;SDS011;42331;53.578;9.760;2023-04-03T14:46:04;2.35;;;0.82;;
56427;SDS011;42331;53.578;9.760;2023-04-03T14:48:39;3.10;;;1.05;;
56427;SDS011;42331;53.578;9.760;2023-04-03T14:51:11;3.17;;;1.10;;
56427;SDS011;42331;53.578;9.760;2023-04-03T14:53:43;3.03;;;0.90;;
56427;SDS011;42331;53.578;9.760;2023-04-03T14:58:58;5.20;;;1.00;;
56427;SDS011;42331;53.578;9.760;2023-04-03T15:01:30;3.55;;;1.00;;
56427;SDS011;42331;53.578;9.760;2023-04-03T15:04:00;3.40;;;0.85;;
56427;SDS011;42331;53.578;9.760;2023-04-03T15:06:31;12.15;;;4.72;;
56427;SDS011;42331;53.578;9.760;2023-04-03T15:09:03;16.65;;;10.60;;
56427;SDS011;42331;53.578;9.760;2023-04-03T15:11:34;2.97;;;0.90;;
56427;SDS011;42331;53.578;9.760;2023-04-03T15:14:05;3.47;;;1.10;;
56427;SDS011;42331;53.578;9.760;2023-04-03T15:16:35;3.67;;;1.08;;
56427;SDS011;42331;53.578;9.760;2023-04-03T15:19:07;6.03;;;1.25;;
56427;SDS011;42331;53.578;9.760;2023-04-03T15:21:38;5.07;;;0.95;;
56427;SDS011;42331;53.578;9.760;2023-04-03T15:24:09;2.93;;;1.00;;
56427;SDS011;42331;53.578;9.760;2023-04-03T15:26:40;6.45;;;1.20;;
56427;SDS011;42331;53.578;9.760;2023-04-03T15:29:11;3.35;;;0.90;;
56427;SDS011;42331;53.578;9.760;2023-04-03T15:31:42;5.40;;;1.00;;
56427;SDS011;42331;53.578;9.760;2023-04-03T15:34:12;3.65;;;0.75;;
56427;SDS011;42331;53.578;9.760;2023-04-03T15:36:43;4.07;;;1.08;;
56427;SDS011;42331;53.578;9.760;2023-04-03T15:39:14;3.88;;;1.00;;
56427;SDS011;42331;53.578;9.760;2023-04-03T15:44:17;2.42;;;0.70;;
56427;SDS011;42331;53.578;9.760;2023-04-03T15:46:48;5.47;;;1.27;;
56427;SDS011;42331;53.578;9.760;2023-04-03T15:49:21;3.75;;;1.10;;
56427;SDS011;42331;53.578;9.760;2023-04-03T15:51:52;2.30;;;0.80;;
56427;SDS011;42331;53.578;9.760;2023-04-03T15:54:23;4.65;;;1.05;;
56427;SDS011;42331;53.578;9.760;2023-04-03T15:56:54;4.63;;;1.25;;
56427;SDS011;42331;53.578;9.760;2023-04-03T15:59:25;1.93;;;0.70;;
56427;SDS011;42331;53.578;9.760;2023-04-03T16:01:56;3.10;;;0.90;;
56427;SDS011;42331;53.578;9.760;2023-04-03T16:04:28;8.10;;;1.58;;
56427;SDS011;42331;53.578;9.760;2023-04-03T16:07:03;4.47;;;0.95;;
56427;SDS011;42331;53.578;9.760;2023-04-03T16:09:34;3.38;;;1.00;;
56427;SDS011;42331;53.578;9.760;2023-04-03T16:12:05;6.78;;;1.05;;
56427;SDS011;42331;53.578;9.760;2023-04-03T16:14:36;3.58;;;0.98;;
56427;SDS011;42331;53.578;9.760;2023-04-03T16:17:07;3.40;;;0.93;;
56427;SDS011;42331;53.578;9.760;2023-04-03T16:19:37;3.45;;;0.88;;
56427;SDS011;42331;53.578;9.760;2023-04-03T16:22:09;3.78;;;0.93;;
56427;SDS011;42331;53.578;9.760;2023-04-03T16:24:40;3.22;;;0.90;;
56427;SDS011;42331;53.578;9.760;2023-04-03T16:27:10;2.80;;;1.05;;
56427;SDS011;42331;53.578;9.760;2023-04-03T16:29:41;4.45;;;1.08;;
56427;SDS011;42331;53.578;9.760;2023-04-03T16:32:12;2.92;;;0.90;;
56427;SDS011;42331;53.578;9.760;2023-04-03T16:34:43;5.63;;;1.40;;
56427;SDS011;42331;53.578;9.760;2023-04-03T16:37:15;5.78;;;1.10;;
56427;SDS011;42331;53.578;9.760;2023-04-03T16:42:16;3.80;;;1.20;;
56427;SDS011;42331;53.578;9.760;2023-04-03T16:44:47;3.33;;;1.10;;
56427;SDS011;42331;53.578;9.760;2023-04-03T16:47:18;4.35;;;0.85;;
56427;SDS011;42331;53.578;9.760;2023-04-03T16:49:49;6.60;;;1.85;;
56427;SDS011;42331;53.578;9.760;2023-04-03T16:52:20;5.45;;;1.20;;
56427;SDS011;42331;53.578;9.760;2023-04-03T16:54:51;4.57;;;1.17;;
56427;SDS011;42331;53.578;9.760;2023-04-03T16:57:25;4.00;;;1.10;;
56427;SDS011;42331;53.578;9.760;2023-04-03T16:59:56;5.40;;;1.30;;
56427;SDS011;42331;53.578;9.760;2023-04-03T17:02:26;3.42;;;0.90;;
56427;SDS011;42331;53.578;9.760;2023-04-03T17:04:57;1.45;;;0.75;;
56427;SDS011;42331;53.578;9.760;2023-04-03T17:07:28;5.88;;;1.50;;
56427;SDS011;42331;53.578;9.760;2023-04-03T17:09:59;2.22;;;0.60;;
56427;SDS011;42331;53.578;9.760;2023-04-03T17:12:30;3.75;;;0.80;;
56427;SDS011;42331;53.578;9.760;2023-04-03T17:15:01;2.83;;;0.70;;
56427;SDS011;42331;53.578;9.760;2023-04-03T17:17:31;5.72;;;1.73;;
56427;SDS011;42331;53.578;9.760;2023-04-03T17:20:02;4.25;;;1.05;;
56427;SDS011;42331;53.578;9.760;2023-04-03T17:22:33;6.28;;;1.77;;
56427;SDS011;42331;53.578;9.760;2023-04-03T17:25:04;3.90;;;0.77;;
56427;SDS011;42331;53.578;9.760;2023-04-03T17:27:35;2.22;;;0.82;;
56427;SDS011;42331;53.578;9.760;2023-04-03T17:30:06;3.83;;;1.15;;
56427;SDS011;42331;53.578;9.760;2023-04-03T17:32:37;2.65;;;0.90;;
56427;SDS011;42331;53.578;9.760;2023-04-03T17:35:08;4.28;;;1.00;;
56427;SDS011;42331;53.578;9.760;2023-04-03T17:37:40;4.75;;;1.90;;
56427;SDS011;42331;53.578;9.760;2023-04-03T17:40:10;3.40;;;1.15;;